createdAt,value
2016-03-31T00:00:21.098Z,74.73
2016-03-31T00:01:21.101Z,74.54
2016-03-31T00:02:21.118Z,74.82
2016-03-31T00:03:21.496Z,74.92
2016-03-31T00:04:21.124Z,74.92
2016-03-31T00:05:21.143Z,74.73
2016-03-31T00:06:21.114Z,74.26
2016-03-31T00:07:21.350Z,74.73
2016-03-31T00:08:21.338Z,74.92
2016-03-31T00:09:35.403Z,74.44
2016-03-31T00:11:21.346Z,74.73
2016-03-31T00:13:21.117Z,75.21
2016-03-31T00:14:21.136Z,75.02
2016-03-31T00:15:35.623Z,75.21
2016-03-31T00:16:21.328Z,74.82
2016-03-31T00:17:21.221Z,74.82
2016-03-31T00:18:21.140Z,75.59
2016-03-31T00:19:21.131Z,75.4
2016-03-31T00:20:21.160Z,75.02
2016-03-31T00:21:21.147Z,74.69
2016-03-31T00:22:21.352Z,74.88
2016-03-31T00:23:21.151Z,74.98
2016-03-31T00:24:21.155Z,75.17
2016-03-31T00:25:21.141Z,74.69
2016-03-31T00:27:21.147Z,74.6
2016-03-31T00:28:21.196Z,75.45
2016-03-31T00:29:35.449Z,75.07
2016-03-31T00:30:21.035Z,75.26
2016-03-31T00:31:21.147Z,75.07
2016-03-31T00:32:21.026Z,75.64
2016-03-31T00:33:21.187Z,75.17
2016-03-31T00:34:35.454Z,75.74
2016-03-31T00:35:21.411Z,75.45
2016-03-31T00:36:21.554Z,75.74
2016-03-31T00:37:21.151Z,75.74
2016-03-31T00:38:21.778Z,75.55
2016-03-31T00:39:21.186Z,75.74
2016-03-31T00:40:21.159Z,75.64
2016-03-31T00:41:21.364Z,75.36
2016-03-31T00:42:21.164Z,75.45
2016-03-31T00:43:21.401Z,75.84
2016-03-31T00:44:21.185Z,75.36
2016-03-31T00:45:21.406Z,75.26
2016-03-31T00:46:21.175Z,75.55
2016-03-31T00:47:21.224Z,76.31
2016-03-31T00:48:21.211Z,75.84
2016-03-31T00:49:21.605Z,76.4
2016-03-31T00:50:21.169Z,76.12
2016-03-31T00:51:21.173Z,76.12
2016-03-31T00:52:21.191Z,76.59
2016-03-31T00:53:35.475Z,76.12
2016-03-31T00:54:21.180Z,76.12
2016-03-31T00:55:21.386Z,76.78
2016-03-31T00:56:21.201Z,76.78
2016-03-31T00:57:21.407Z,77.17
2016-03-31T00:58:21.191Z,77.92
2016-03-31T00:59:21.194Z,77.26
2016-03-31T01:00:21.399Z,76.78
2016-03-31T01:01:21.231Z,77.36
2016-03-31T01:02:21.405Z,77.07
2016-03-31T01:04:21.239Z,77.83
2016-03-31T01:05:21.210Z,77.55
2016-03-31T01:06:21.212Z,77.26
2016-03-31T01:07:21.403Z,78.21
2016-03-31T01:08:21.234Z,77.73
2016-03-31T01:09:21.205Z,77.55
2016-03-31T01:10:21.224Z,77.17
2016-03-31T01:11:35.711Z,77.55
2016-03-31T01:12:21.464Z,77.36
2016-03-31T01:13:21.247Z,77.26
2016-03-31T01:14:21.234Z,77.17
2016-03-31T01:15:21.222Z,77.36
2016-03-31T01:16:21.224Z,77.17
2016-03-31T01:17:21.539Z,77.17
2016-03-31T01:18:21.230Z,77.26
2016-03-31T01:19:21.232Z,77.64
2016-03-31T01:20:21.250Z,77.55
2016-03-31T01:21:21.440Z,77.45
2016-03-31T01:22:21.443Z,76.97
2016-03-31T01:24:21.246Z,76.78
2016-03-31T01:25:21.248Z,76.97
2016-03-31T01:26:21.282Z,77.07
2016-03-31T01:29:21.259Z,76.97
2016-03-31T01:30:21.495Z,76.97
2016-03-31T01:32:21.126Z,77.36
2016-03-31T01:33:21.645Z,76.82
2016-03-31T01:34:21.694Z,77.17
2016-03-31T01:35:21.462Z,76.92
2016-03-31T01:36:21.262Z,76.88
2016-03-31T01:37:21.264Z,77.11
2016-03-31T01:38:21.267Z,77.01
2016-03-31T01:39:21.677Z,76.97
2016-03-31T01:40:20.820Z,77.39
2016-03-31T01:41:21.291Z,77.07
2016-03-31T01:42:21.498Z,77.2
2016-03-31T01:43:21.344Z,77.2
2016-03-31T01:45:21.708Z,76.92
2016-03-31T01:46:21.289Z,77.49
2016-03-31T01:47:21.526Z,77.3
2016-03-31T01:48:21.294Z,77.11
2016-03-31T01:49:21.531Z,76.92
2016-03-31T01:50:21.738Z,76.92
2016-03-31T01:51:21.333Z,77.2
2016-03-31T01:52:21.289Z,77.36
2016-03-31T01:53:21.308Z,77.07
2016-03-31T01:54:21.294Z,76.63
2016-03-31T01:55:21.547Z,77.07
2016-03-31T01:56:21.300Z,77.2
2016-03-31T01:57:21.302Z,77.2
2016-03-31T01:58:21.305Z,77.11
2016-03-31T01:59:21.308Z,76.92
2016-03-31T02:00:21.311Z,76.92
2016-03-31T02:01:21.313Z,77.2
2016-03-31T02:02:21.332Z,77.2
2016-03-31T02:03:21.523Z,77.01
2016-03-31T02:04:21.321Z,76.82
2016-03-31T02:05:21.324Z,76.73
2016-03-31T02:06:21.343Z,76.82
2016-03-31T02:07:21.338Z,76.82
2016-03-31T02:08:21.560Z,76.97
2016-03-31T02:09:21.329Z,77.01
2016-03-31T02:10:35.627Z,77.2
2016-03-31T02:11:21.335Z,77.01
2016-03-31T02:12:20.883Z,77.01
2016-03-31T02:13:21.340Z,76.63
2016-03-31T02:14:21.342Z,77.01
2016-03-31T02:15:21.376Z,76.63
2016-03-31T02:16:21.347Z,76.92
2016-03-31T02:17:21.665Z,76.54
2016-03-31T02:18:21.762Z,76.54
2016-03-31T02:19:21.359Z,76.63
2016-03-31T02:20:21.362Z,76.54
2016-03-31T02:21:21.364Z,76.63
2016-03-31T02:22:21.570Z,77.11
2016-03-31T02:23:21.369Z,76.82
2016-03-31T02:24:21.372Z,76.73
2016-03-31T02:25:21.795Z,76.82
2016-03-31T02:26:21.798Z,77.01
2016-03-31T02:27:21.380Z,77.3
2016-03-31T02:28:21.397Z,77.01
2016-03-31T02:29:21.369Z,76.92
2016-03-31T02:30:21.403Z,77.11
2016-03-31T02:31:21.405Z,77.01
2016-03-31T02:32:21.643Z,77.01
2016-03-31T02:33:35.677Z,76.54
2016-03-31T02:34:20.930Z,76.92
2016-03-31T02:35:21.401Z,77.2
2016-03-31T02:36:21.388Z,77.77
2016-03-31T02:37:21.391Z,77.97
2016-03-31T02:38:21.393Z,77.39
2016-03-31T02:39:21.396Z,77.2
2016-03-31T02:40:22.008Z,77.2
2016-03-31T02:41:21.620Z,77.11
2016-03-31T02:42:21.608Z,76.54
2016-03-31T02:43:21.829Z,76.54
2016-03-31T02:44:21.410Z,77.11
2016-03-31T02:45:21.818Z,77.2
2016-03-31T02:46:21.416Z,77.39
2016-03-31T02:47:21.496Z,76.63
2016-03-31T02:48:21.842Z,76.54
2016-03-31T02:50:21.426Z,76.88
2016-03-31T02:51:21.459Z,77.49
2016-03-31T02:52:21.635Z,77.39
2016-03-31T02:53:21.450Z,77.58
2016-03-31T02:54:21.453Z,76.82
2016-03-31T02:55:21.455Z,77.39
2016-03-31T02:56:21.629Z,77.01
2016-03-31T02:57:21.445Z,77.64
2016-03-31T02:58:21.447Z,77.77
2016-03-31T02:59:21.434Z,77.55
2016-03-31T03:00:21.453Z,77.58
2016-03-31T03:01:21.658Z,77.07
2016-03-31T03:02:21.553Z,77.07
2016-03-31T03:03:21.492Z,77.11
2016-03-31T03:04:21.480Z,77.2
2016-03-31T03:05:21.466Z,77.17
2016-03-31T03:06:21.656Z,77.73
2016-03-31T03:07:22.098Z,77.73
2016-03-31T03:08:21.453Z,77.55
2016-03-31T03:09:22.066Z,77.68
2016-03-31T03:10:21.458Z,77.26
2016-03-31T03:11:21.681Z,78.11
2016-03-31T03:12:21.449Z,78.02
2016-03-31T03:13:21.483Z,77.73
2016-03-31T03:15:21.691Z,77.83
2016-03-31T03:16:35.772Z,78.69
2016-03-31T03:17:21.681Z,79.25
2016-03-31T03:18:21.466Z,79.25
2016-03-31T03:19:21.468Z,78.97
2016-03-31T03:20:21.485Z,79.63
2016-03-31T03:21:21.474Z,78.69
2016-03-31T03:22:21.726Z,79.16
2016-03-31T03:23:21.479Z,78.78
2016-03-31T03:24:21.685Z,79.63
2016-03-31T03:25:21.468Z,79.54
2016-03-31T03:26:21.502Z,79.63
2016-03-31T03:27:21.473Z,79.44
2016-03-31T03:28:22.133Z,79.73
2016-03-31T03:29:21.495Z,79.54
2016-03-31T03:30:21.919Z,79.73
2016-03-31T03:31:21.485Z,79.16
2016-03-31T03:32:21.534Z,79.25
2016-03-31T03:33:21.506Z,78.88
2016-03-31T03:34:35.602Z,78.88
2016-03-31T03:35:21.745Z,78.78
2016-03-31T03:36:35.794Z,78.88
2016-03-31T03:37:21.047Z,79.16
2016-03-31T03:38:21.503Z,79.06
2016-03-31T03:39:21.536Z,79.16
2016-03-31T03:40:21.524Z,79.25
2016-03-31T03:41:21.699Z,78.88
2016-03-31T03:43:21.516Z,79.16
2016-03-31T03:44:21.536Z,79.06
2016-03-31T03:45:21.506Z,78.88
2016-03-31T03:46:21.743Z,78.78
2016-03-31T03:47:21.575Z,78.69
2016-03-31T03:48:21.952Z,78.88
2016-03-31T03:49:21.533Z,78.69
2016-03-31T03:50:21.551Z,78.88
2016-03-31T03:51:21.726Z,78.88
2016-03-31T03:52:21.541Z,78.59
2016-03-31T03:53:21.544Z,78.97
2016-03-31T03:54:21.594Z,79.06
2016-03-31T03:55:21.971Z,78.97
2016-03-31T03:56:35.832Z,78.3
2016-03-31T03:57:21.539Z,78.59
2016-03-31T03:58:21.541Z,78.5
2016-03-31T03:59:21.576Z,78.78
2016-03-31T04:00:21.546Z,78.97
2016-03-31T04:01:21.549Z,78.88
2016-03-31T04:02:21.630Z,78.97
2016-03-31T04:03:21.554Z,78.97
2016-03-31T04:04:21.761Z,78.59
2016-03-31T04:05:21.560Z,78.97
2016-03-31T04:06:21.562Z,79.06
2016-03-31T04:07:21.753Z,78.88
2016-03-31T04:08:21.568Z,79.16
2016-03-31T04:10:21.573Z,78.97
2016-03-31T04:11:21.592Z,78.88
2016-03-31T04:12:21.602Z,78.97
2016-03-31T04:13:21.677Z,78.88
2016-03-31T04:14:22.008Z,78.78
2016-03-31T04:16:21.602Z,78.78
2016-03-31T04:17:22.043Z,78.88
2016-03-31T04:18:21.545Z,78.97
2016-03-31T04:19:21.564Z,78.69
2016-03-31T04:20:21.551Z,78.59
2016-03-31T04:21:21.584Z,78.59
2016-03-31T04:22:21.556Z,78.59
2016-03-31T04:23:21.559Z,78.3
2016-03-31T04:24:21.562Z,78.21
2016-03-31T04:25:21.783Z,78.4
2016-03-31T04:26:21.636Z,78.5
2016-03-31T04:27:21.705Z,78.11
2016-03-31T04:28:21.964Z,78.4
2016-03-31T04:29:21.816Z,78.4
2016-03-31T04:30:21.845Z,78.59
2016-03-31T04:31:22.116Z,78.59
2016-03-31T04:32:21.935Z,78.4
2016-03-31T04:33:21.956Z,78.59
2016-03-31T04:34:21.478Z,78.5
2016-03-31T04:36:21.958Z,78.88
2016-03-31T04:37:36.467Z,78.78
2016-03-31T04:38:21.960Z,79.06
2016-03-31T04:39:21.969Z,78.88
2016-03-31T04:40:21.993Z,78.97
2016-03-31T04:41:22.185Z,78.88
2016-03-31T04:42:22.207Z,78.88
2016-03-31T04:43:21.992Z,78.97
2016-03-31T04:44:21.872Z,78.88
2016-03-31T04:45:22.205Z,78.97
2016-03-31T04:46:22.631Z,79.06
2016-03-31T04:47:22.040Z,78.78
2016-03-31T04:48:22.233Z,78.69
2016-03-31T04:49:22.033Z,78.88
2016-03-31T04:50:22.037Z,78.69
2016-03-31T04:51:22.243Z,78.59
2016-03-31T04:52:22.043Z,78.69
2016-03-31T04:53:22.280Z,78.4
2016-03-31T04:54:36.330Z,78.59
2016-03-31T04:56:22.273Z,78.88
2016-03-31T04:57:22.058Z,78.88
2016-03-31T04:58:22.076Z,78.69
2016-03-31T04:59:22.047Z,78.69
2016-03-31T05:00:22.066Z,78.97
2016-03-31T05:01:22.053Z,78.59
2016-03-31T05:03:22.043Z,79.16
2016-03-31T05:04:22.061Z,79.92
2016-03-31T05:05:22.064Z,78.97
2016-03-31T05:06:22.301Z,78.78
2016-03-31T05:07:22.273Z,78.88
2016-03-31T05:08:22.072Z,79.16
2016-03-31T05:09:22.278Z,78.69
2016-03-31T05:10:22.061Z,78.88
2016-03-31T05:11:22.064Z,78.88
2016-03-31T05:12:22.083Z,79.16
2016-03-31T05:13:22.085Z,79.06
2016-03-31T05:14:22.088Z,79.63
2016-03-31T05:15:22.122Z,79.35
2016-03-31T05:16:22.312Z,79.63
2016-03-31T05:17:21.988Z,79.44
2016-03-31T05:18:22.083Z,79.44
2016-03-31T05:19:22.101Z,79.63
2016-03-31T05:20:22.105Z,79.25
2016-03-31T05:21:22.545Z,79.25
2016-03-31T05:22:22.298Z,79.73
2016-03-31T05:23:22.300Z,79.63
2016-03-31T05:24:22.115Z,79.35
2016-03-31T05:25:22.102Z,79.35
2016-03-31T05:26:22.324Z,79.44
2016-03-31T05:27:22.312Z,79.54
2016-03-31T05:28:22.329Z,79.63
2016-03-31T05:29:22.331Z,79.63
2016-03-31T05:30:22.132Z,79.54
2016-03-31T05:31:22.118Z,79.83
2016-03-31T05:32:22.324Z,79.54
2016-03-31T05:33:22.123Z,79.63
2016-03-31T05:34:22.345Z,79.44
2016-03-31T05:35:22.363Z,79.25
2016-03-31T05:36:22.319Z,79.77
2016-03-31T05:37:22.119Z,79.63
2016-03-31T05:38:22.136Z,79.44
2016-03-31T05:39:22.140Z,79.44
2016-03-31T05:40:22.142Z,79.35
2016-03-31T05:41:36.224Z,80.21
2016-03-31T05:42:22.147Z,79.92
2016-03-31T05:43:22.354Z,80.11
2016-03-31T05:44:22.137Z,79.54
2016-03-31T05:45:22.156Z,80.21
2016-03-31T05:46:22.143Z,80.02
2016-03-31T05:47:22.365Z,79.16
2016-03-31T05:48:22.148Z,79.54
2016-03-31T05:49:22.167Z,79.54
2016-03-31T05:50:22.169Z,79.44
2016-03-31T05:51:22.156Z,79.44
2016-03-31T05:52:22.160Z,79.63
2016-03-31T05:53:22.162Z,79.44
2016-03-31T05:54:22.399Z,79.44
2016-03-31T05:55:22.621Z,79.73
2016-03-31T05:56:22.170Z,79.35
2016-03-31T05:57:22.173Z,79.49
2016-03-31T05:58:22.190Z,79.35
2016-03-31T05:59:22.209Z,79.49
2016-03-31T06:00:22.180Z,79.54
2016-03-31T06:01:22.215Z,79.68
2016-03-31T06:02:36.280Z,79.25
2016-03-31T06:03:21.720Z,79.35
2016-03-31T06:04:22.176Z,79.58
2016-03-31T06:05:22.178Z,79.96
2016-03-31T06:06:22.181Z,79.58
2016-03-31T06:07:22.184Z,79.49
2016-03-31T06:08:22.202Z,80.05
2016-03-31T06:09:22.205Z,79.96
2016-03-31T06:10:22.427Z,79.96
2016-03-31T06:12:22.197Z,79.77
2016-03-31T06:13:22.200Z,80.05
2016-03-31T06:15:22.611Z,80.24
2016-03-31T06:16:21.739Z,80.24
2016-03-31T06:17:22.227Z,80.15
2016-03-31T06:18:22.229Z,80.44
2016-03-31T06:19:22.216Z,80.44
2016-03-31T06:20:22.218Z,80.15
2016-03-31T06:22:22.287Z,80.24
2016-03-31T06:23:22.274Z,79.77
2016-03-31T06:24:22.229Z,80.24
2016-03-31T06:25:22.232Z,80.24
2016-03-31T06:26:22.235Z,80.05
2016-03-31T06:27:22.238Z,80.24
2016-03-31T06:28:22.443Z,80.24
2016-03-31T06:29:22.243Z,80.24
2016-03-31T06:30:22.231Z,79.96
2016-03-31T06:31:22.264Z,79.96
2016-03-31T06:32:22.236Z,80.34
2016-03-31T06:33:22.238Z,80.24
2016-03-31T06:34:22.257Z,80.44
2016-03-31T06:35:22.275Z,80.24
2016-03-31T06:36:22.261Z,80.44
2016-03-31T06:37:22.265Z,80.15
2016-03-31T06:38:22.252Z,80.15
2016-03-31T06:39:22.286Z,80.24
2016-03-31T06:40:22.304Z,80.05
2016-03-31T06:41:22.306Z,80.24
2016-03-31T06:42:22.278Z,80.53
2016-03-31T06:43:22.311Z,80.53
2016-03-31T06:44:22.283Z,80.82
2016-03-31T06:45:22.302Z,80.82
2016-03-31T06:46:22.288Z,80.44
2016-03-31T06:47:22.277Z,80.63
2016-03-31T06:48:22.294Z,80.82
2016-03-31T06:49:22.296Z,80.53
2016-03-31T06:50:22.488Z,80.53
2016-03-31T06:51:22.287Z,80.91
2016-03-31T06:52:22.304Z,80.82
2016-03-31T06:53:22.308Z,81.1
2016-03-31T06:54:22.326Z,81.29
2016-03-31T06:55:22.719Z,81.2
2016-03-31T06:56:22.301Z,81.58
2016-03-31T06:57:22.318Z,81.2
2016-03-31T06:58:22.321Z,80.91
2016-03-31T06:59:22.339Z,80.53
2016-03-31T07:00:22.717Z,80.63
2016-03-31T07:01:22.532Z,80.63
2016-03-31T07:02:22.316Z,80.72
2016-03-31T07:03:22.335Z,80.82
2016-03-31T07:04:22.337Z,80.57
2016-03-31T07:05:22.339Z,80.47
2016-03-31T07:06:22.328Z,81.05
2016-03-31T07:07:22.330Z,80.38
2016-03-31T07:08:22.369Z,80.47
2016-03-31T07:09:22.339Z,81.05
2016-03-31T07:10:22.358Z,80.47
2016-03-31T07:11:22.345Z,80.95
2016-03-31T07:13:22.366Z,80.38
2016-03-31T07:14:22.353Z,81.14
2016-03-31T07:15:22.355Z,80.66
2016-03-31T07:16:22.375Z,80.29
2016-03-31T07:17:22.377Z,80.47
2016-03-31T07:18:22.395Z,80.33
2016-03-31T07:19:22.383Z,80.71
2016-03-31T07:20:22.869Z,80.71
2016-03-31T07:21:22.387Z,80.33
2016-03-31T07:22:22.421Z,80.23
2016-03-31T07:23:22.628Z,80.23
2016-03-31T07:24:22.396Z,79.66
2016-03-31T07:25:22.632Z,80.52
2016-03-31T07:26:22.385Z,80.13
2016-03-31T07:27:22.404Z,80.33
2016-03-31T07:28:22.609Z,80.33
2016-03-31T07:29:22.409Z,80.33
2016-03-31T07:30:22.412Z,80.33
2016-03-31T07:31:22.430Z,79.94
2016-03-31T07:32:22.620Z,80.04
2016-03-31T07:33:22.451Z,80.9
2016-03-31T07:34:22.454Z,80.52
2016-03-31T07:36:22.444Z,80.61
2016-03-31T07:37:22.431Z,80.61
2016-03-31T07:38:22.652Z,80.52
2016-03-31T07:39:22.452Z,80.71
2016-03-31T07:40:22.502Z,80.9
2016-03-31T07:41:22.488Z,80.71
2016-03-31T07:42:22.460Z,80.9
2016-03-31T07:43:22.463Z,80.61
2016-03-31T07:44:22.466Z,80.8
2016-03-31T07:45:22.827Z,80.8
2016-03-31T07:46:22.486Z,80.99
2016-03-31T07:47:22.707Z,80.52
2016-03-31T07:48:22.477Z,80.99
2016-03-31T07:49:22.510Z,80.8
2016-03-31T07:50:22.497Z,80.33
2016-03-31T07:51:22.500Z,80.52
2016-03-31T07:52:22.705Z,80.61
2016-03-31T07:53:22.583Z,80.71
2016-03-31T07:54:22.539Z,80.99
2016-03-31T07:55:22.510Z,80.61
2016-03-31T07:56:22.529Z,80.8
2016-03-31T07:57:22.515Z,80.61
2016-03-31T07:58:22.550Z,80.61
2016-03-31T07:59:22.521Z,80.61
2016-03-31T08:00:22.524Z,80.71
2016-03-31T08:01:22.526Z,80.38
2016-03-31T08:02:22.545Z,80.8
2016-03-31T08:04:22.550Z,80.61
2016-03-31T08:06:22.572Z,80.52
2016-03-31T08:07:22.543Z,80.8
2016-03-31T08:08:22.561Z,80.71
2016-03-31T08:09:22.564Z,80.71
2016-03-31T08:10:22.551Z,80.71
2016-03-31T08:11:22.570Z,80.99
2016-03-31T08:12:36.869Z,80.9
2016-03-31T08:14:22.561Z,80.71
2016-03-31T08:15:22.596Z,80.8
2016-03-31T08:16:22.598Z,80.9
2016-03-31T08:17:22.586Z,80.8
2016-03-31T08:18:22.807Z,80.71
2016-03-31T08:19:22.591Z,80.9
2016-03-31T08:20:22.593Z,80.33
2016-03-31T08:21:22.596Z,80.61
2016-03-31T08:22:22.646Z,80.8
2016-03-31T08:23:22.617Z,80.23
2016-03-31T08:24:22.620Z,80.33
2016-03-31T08:25:22.637Z,80.33
2016-03-31T08:26:22.640Z,79.47
2016-03-31T08:27:22.628Z,79.28
2016-03-31T08:28:22.630Z,79.7
2016-03-31T08:29:22.868Z,79.57
2016-03-31T08:30:22.651Z,79.38
2016-03-31T08:31:22.639Z,79.6
2016-03-31T08:32:23.047Z,79.94
2016-03-31T08:33:22.862Z,80.08
2016-03-31T08:34:22.865Z,79.51
2016-03-31T08:35:22.665Z,79.51
2016-03-31T08:36:22.683Z,79.6
2016-03-31T08:37:22.920Z,79.7
2016-03-31T08:38:22.689Z,79.41
2016-03-31T08:39:22.675Z,79.41
2016-03-31T08:40:22.710Z,79.7
2016-03-31T08:41:22.681Z,79.6
2016-03-31T08:42:22.684Z,79.6
2016-03-31T08:43:22.703Z,79.41
2016-03-31T08:44:22.705Z,79.7
2016-03-31T08:45:22.942Z,80.27
2016-03-31T08:46:22.711Z,79.8
2016-03-31T08:47:22.744Z,79.55
2016-03-31T08:48:22.731Z,78.98
2016-03-31T08:49:22.734Z,79.07
2016-03-31T08:50:22.752Z,79.17
2016-03-31T08:51:36.832Z,79.07
2016-03-31T08:52:23.195Z,78.5
2016-03-31T08:53:22.807Z,78.78
2016-03-31T08:54:22.763Z,77.83
2016-03-31T08:55:22.765Z,77.36
2016-03-31T08:56:22.784Z,77.36
2016-03-31T08:57:22.771Z,77.36
2016-03-31T08:58:22.774Z,76.88
2016-03-31T08:59:22.792Z,77.55
2016-03-31T09:00:22.810Z,77.69
2016-03-31T09:01:22.813Z,77.64
2016-03-31T09:02:22.801Z,77.45
2016-03-31T09:03:23.037Z,76.88
2016-03-31T09:04:22.805Z,77.83
2016-03-31T09:05:22.840Z,77.93
2016-03-31T09:06:22.826Z,77.93
2016-03-31T09:07:22.828Z,77.45
2016-03-31T09:08:22.831Z,77.45
2016-03-31T09:09:22.834Z,77.45
2016-03-31T09:10:22.869Z,77.74
2016-03-31T09:11:23.886Z,77.83
2016-03-31T09:12:22.858Z,77.74
2016-03-31T09:13:22.877Z,77.74
2016-03-31T09:14:22.863Z,77.36
2016-03-31T09:15:22.882Z,77.17
2016-03-31T09:16:22.885Z,77.55
2016-03-31T09:17:22.888Z,77.36
2016-03-31T09:18:22.891Z,77.83
2016-03-31T09:19:22.893Z,77.74
2016-03-31T09:20:22.896Z,77.83
2016-03-31T09:21:23.117Z,78.03
2016-03-31T09:22:22.916Z,77.93
2016-03-31T09:23:23.154Z,78.22
2016-03-31T09:24:22.937Z,78.12
2016-03-31T09:25:22.925Z,78.03
2016-03-31T09:26:23.068Z,78.03
2016-03-31T09:27:23.118Z,78.31
2016-03-31T09:28:22.949Z,77.83
2016-03-31T09:29:22.951Z,78.31
2016-03-31T09:30:24.204Z,78.22
2016-03-31T09:31:22.971Z,78.12
2016-03-31T09:32:22.990Z,77.74
2016-03-31T09:33:23.024Z,78.31
2016-03-31T09:34:22.980Z,78.41
2016-03-31T09:35:23.201Z,77.93
2016-03-31T09:36:23.204Z,78.03
2016-03-31T09:37:22.988Z,78.22
2016-03-31T09:38:22.990Z,78.03
2016-03-31T09:39:22.993Z,77.83
2016-03-31T09:40:23.012Z,78.5
2016-03-31T09:41:23.046Z,78.31
2016-03-31T09:42:23.017Z,77.36
2016-03-31T09:43:23.036Z,77.93
2016-03-31T09:44:23.039Z,77.17
2016-03-31T09:45:23.057Z,77.64
2016-03-31T09:46:23.059Z,77.59
2016-03-31T09:49:23.082Z,77.17
2016-03-31T09:50:23.069Z,77.26
2016-03-31T09:51:23.072Z,76.59
2016-03-31T09:52:23.107Z,76.98
2016-03-31T09:53:23.281Z,77.07
2016-03-31T09:54:23.097Z,77.36
2016-03-31T09:55:23.568Z,77.26
2016-03-31T09:56:23.086Z,77.07
2016-03-31T09:57:23.121Z,77.64
2016-03-31T09:58:23.341Z,76.79
2016-03-31T09:59:23.157Z,77.07
2016-03-31T10:00:23.128Z,77.26
2016-03-31T10:01:23.349Z,77.26
2016-03-31T10:02:23.149Z,76.98
2016-03-31T10:03:37.246Z,77.26
2016-03-31T10:04:23.140Z,76.79
2016-03-31T10:05:23.392Z,77.87
2016-03-31T10:06:23.159Z,76.88
2016-03-31T10:07:23.162Z,77.83
2016-03-31T10:08:23.165Z,76.69
2016-03-31T10:09:23.231Z,76.44
2016-03-31T10:10:23.187Z,76.98
2016-03-31T10:11:23.236Z,76.54
2016-03-31T10:12:23.238Z,75.68
2016-03-31T10:13:23.428Z,75.87
2016-03-31T10:14:23.197Z,76.16
2016-03-31T10:15:23.872Z,75.4
2016-03-31T10:16:23.203Z,75.87
2016-03-31T10:17:23.205Z,75.49
2016-03-31T10:18:23.208Z,75.4
2016-03-31T10:19:23.226Z,75.4
2016-03-31T10:20:23.228Z,75.49
2016-03-31T10:21:23.232Z,75.45
2016-03-31T10:22:23.234Z,76.06
2016-03-31T10:23:23.269Z,75.59
2016-03-31T10:24:23.255Z,75.68
2016-03-31T10:25:23.258Z,75.4
2016-03-31T10:26:23.261Z,74.82
2016-03-31T10:27:23.279Z,75.01
2016-03-31T10:28:23.266Z,74.25
2016-03-31T10:29:23.299Z,74.06
2016-03-31T10:30:23.271Z,74.16
2016-03-31T10:31:23.321Z,74.92
2016-03-31T10:32:23.293Z,74.63
2016-03-31T10:33:23.310Z,74.35
2016-03-31T10:34:23.313Z,74.06
2016-03-31T10:35:23.331Z,74.73
2016-03-31T10:36:23.334Z,74.16
2016-03-31T10:37:23.321Z,74.63
2016-03-31T10:38:23.324Z,74.63
2016-03-31T10:39:23.562Z,74.82
2016-03-31T10:40:23.345Z,73.77
2016-03-31T10:41:23.473Z,74.12
2016-03-31T10:42:23.553Z,73.39
2016-03-31T10:43:23.604Z,72.82
2016-03-31T10:44:23.950Z,73.49
2016-03-31T10:45:23.359Z,73.96
2016-03-31T10:46:23.377Z,73.3
2016-03-31T10:47:23.395Z,73.11
2016-03-31T10:48:23.601Z,73.3
2016-03-31T10:49:23.400Z,73.11
2016-03-31T10:50:23.403Z,72.92
2016-03-31T10:51:23.406Z,72.34
2016-03-31T10:52:23.425Z,72.53
2016-03-31T10:53:23.427Z,72.72
2016-03-31T10:54:23.836Z,72.44
2016-03-31T10:55:23.432Z,73.11
2016-03-31T10:56:23.435Z,73.21
2016-03-31T10:57:23.438Z,74.06
2016-03-31T10:58:23.441Z,73.21
2016-03-31T11:00:23.649Z,73.39
2016-03-31T11:02:23.483Z,72.53
2016-03-31T11:03:23.548Z,72.53
2016-03-31T11:04:23.472Z,73.21
2016-03-31T11:05:23.522Z,72.44
2016-03-31T11:07:23.512Z,72.72
2016-03-31T11:09:23.532Z,73.01
2016-03-31T11:11:23.710Z,72.63
2016-03-31T11:12:23.509Z,72.53
2016-03-31T11:13:23.543Z,72.53
2016-03-31T11:14:23.531Z,72.53
2016-03-31T11:15:23.581Z,72.63
2016-03-31T11:16:23.536Z,72.72
2016-03-31T11:17:23.554Z,72.86
2016-03-31T11:18:23.557Z,72.28
2016-03-31T11:19:23.559Z,71.58
2016-03-31T11:20:23.547Z,71.68
2016-03-31T11:21:23.565Z,71.58
2016-03-31T11:22:23.567Z,71.87
2016-03-31T11:23:23.570Z,71.52
2016-03-31T11:24:23.589Z,71.23
2016-03-31T11:25:23.592Z,71.52
2016-03-31T11:26:23.610Z,71.23
2016-03-31T11:27:23.597Z,70.57
2016-03-31T11:28:23.599Z,71.33
2016-03-31T11:29:23.618Z,71.23
2016-03-31T11:30:23.620Z,71.52
2016-03-31T11:31:23.638Z,70.67
2016-03-31T11:32:23.626Z,71.23
2016-03-31T11:33:23.643Z,70.67
2016-03-31T11:34:23.663Z,70.57
2016-03-31T11:35:23.665Z,70.47
2016-03-31T11:36:23.682Z,70.95
2016-03-31T11:37:23.654Z,70.76
2016-03-31T11:38:23.673Z,71.62
2016-03-31T11:39:23.676Z,71.04
2016-03-31T11:40:23.679Z,71.04
2016-03-31T11:41:23.681Z,70.19
2016-03-31T11:42:23.684Z,70.47
2016-03-31T11:43:23.701Z,70.47
2016-03-31T11:44:23.704Z,70.67
2016-03-31T11:45:23.723Z,71.04
2016-03-31T11:46:23.742Z,71.33
2016-03-31T11:47:23.728Z,71.91
2016-03-31T11:48:23.934Z,70.76
2016-03-31T11:49:23.764Z,71.23
2016-03-31T11:50:23.939Z,71.04
2016-03-31T11:51:23.958Z,70.47
2016-03-31T11:52:23.758Z,70.38
2016-03-31T11:53:23.776Z,70.19
2016-03-31T11:54:23.778Z,71.43
2016-03-31T11:55:23.781Z,71.52
2016-03-31T11:56:23.768Z,71.14
2016-03-31T11:57:23.786Z,70.47
2016-03-31T11:58:23.789Z,70.76
2016-03-31T11:59:23.338Z,70.76
2016-03-31T12:00:23.811Z,70.57
2016-03-31T12:01:23.813Z,71.23
2016-03-31T12:02:23.816Z,71.52
2016-03-31T12:03:23.835Z,71.33
2016-03-31T12:04:26.853Z,70.67
2016-03-31T12:05:23.824Z,70.95
2016-03-31T12:06:23.843Z,70.57
2016-03-31T12:07:23.845Z,70.76
2016-03-31T12:08:23.848Z,70.76
2016-03-31T12:09:23.865Z,71.62
2016-03-31T12:10:24.071Z,71.72
2016-03-31T12:11:23.871Z,70.67
2016-03-31T12:12:23.874Z,71.14
2016-03-31T12:13:23.893Z,71.23
2016-03-31T12:14:24.098Z,70.95
2016-03-31T12:15:23.898Z,71.33
2016-03-31T12:16:23.915Z,71.62
2016-03-31T12:17:23.918Z,71.33
2016-03-31T12:18:23.920Z,71.14
2016-03-31T12:19:23.940Z,71.52
2016-03-31T12:20:23.926Z,71.46
2016-03-31T12:21:23.961Z,71.46
2016-03-31T12:22:23.948Z,71.56
2016-03-31T12:23:23.951Z,71.27
2016-03-31T12:24:23.953Z,71.46
2016-03-31T12:25:23.956Z,71.46
2016-03-31T12:26:23.974Z,71.56
2016-03-31T12:27:23.992Z,71.37
2016-03-31T12:28:23.994Z,71.08
2016-03-31T12:29:23.997Z,70.32
2016-03-31T12:30:24.000Z,70.79
2016-03-31T12:31:24.019Z,69.93
2016-03-31T12:32:24.021Z,69.93
2016-03-31T12:33:24.024Z,69.65
2016-03-31T12:34:24.026Z,70.13
2016-03-31T12:35:24.045Z,70.42
2016-03-31T12:36:24.048Z,69.56
2016-03-31T12:37:24.066Z,70.13
2016-03-31T12:38:24.054Z,70.61
2016-03-31T12:39:24.071Z,70.22
2016-03-31T12:40:24.262Z,69.31
2016-03-31T12:41:24.076Z,69.65
2016-03-31T12:42:24.095Z,69.93
2016-03-31T12:43:24.082Z,69.65
2016-03-31T12:44:24.101Z,69.93
2016-03-31T12:45:24.118Z,70.7
2016-03-31T12:46:24.106Z,70.32
2016-03-31T12:47:24.139Z,70.22
2016-03-31T12:48:24.142Z,70.7
2016-03-31T12:49:24.145Z,70.7
2016-03-31T12:50:24.367Z,70.79
2016-03-31T12:51:24.167Z,71.08
2016-03-31T12:52:24.169Z,70.7
2016-03-31T12:53:24.156Z,70.7
2016-03-31T12:54:24.158Z,71.31
2016-03-31T12:55:24.192Z,71.69
2016-03-31T12:56:24.195Z,70.54
2016-03-31T12:57:24.198Z,70.16
2016-03-31T12:58:24.200Z,70.64
2016-03-31T12:59:24.203Z,69.87
2016-03-31T13:00:24.408Z,69.68
2016-03-31T13:01:24.241Z,69.84
2016-03-31T13:02:24.211Z,69.68
2016-03-31T13:03:24.245Z,69.78
2016-03-31T13:04:24.232Z,69.4
2016-03-31T13:05:24.236Z,69.4
2016-03-31T13:06:24.269Z,69.49
2016-03-31T13:07:24.272Z,70.16
2016-03-31T13:08:24.275Z,70.64
2016-03-31T13:09:24.277Z,70.45
2016-03-31T13:10:24.279Z,69.87
2016-03-31T13:11:24.298Z,70.07
2016-03-31T13:12:24.301Z,69.97
2016-03-31T13:13:24.303Z,68.92
2016-03-31T13:14:24.306Z,68.73
2016-03-31T13:15:24.309Z,68.92
2016-03-31T13:16:24.327Z,69.21
2016-03-31T13:17:24.565Z,69.31
2016-03-31T13:18:24.348Z,70.07
2016-03-31T13:19:24.539Z,69.59
2016-03-31T13:20:24.353Z,69.68
2016-03-31T13:21:24.372Z,69.68
2016-03-31T13:22:24.375Z,69.74
2016-03-31T13:23:24.596Z,69.37
2016-03-31T13:24:24.599Z,69.65
2016-03-31T13:25:24.398Z,70.61
2016-03-31T13:26:24.417Z,70.32